Time;durP1;ratioP1;P1;durP2;ratioP2;P2;SDS_P1;SDS_P2;PMS_P1;PMS_P2;Temp;Humidity;BMP_temperature;BMP_pressure;BME280_temperature;BME280_humidity;BME280_pressure;Samples;Min_cycle;Max_cycle;Signal;HPM_P1;HPM_P2
2022/07/14 00:02:11;;;;;;;4.70;2.10;;;;;;;;;;5079560;28;20380;-82
2022/07/14 00:04:37;;;;;;;4.32;1.92;;;;;;;;;;5078115;28;20035;-82
2022/07/14 00:07:03;;;;;;;4.05;2.13;;;;;;;;;;5078274;28;20032;-82
2022/07/14 00:09:29;;;;;;;3.90;1.80;;;;;;;;;;5085796;28;20076;-81
2022/07/14 00:11:55;;;;;;;3.95;2.22;;;;;;;;;;5096871;28;20031;-81
2022/07/14 00:14:21;;;;;;;4.90;2.10;;;;;;;;;;5098115;28;20043;-81
2022/07/14 00:16:47;;;;;;;4.03;2.00;;;;;;;;;;5092190;28;20033;-81
2022/07/14 00:19:13;;;;;;;3.40;1.70;;;;;;;;;;5087590;28;20044;-81
2022/07/14 00:21:39;;;;;;;4.18;2.10;;;;;;;;;;5091606;28;20395;-82
2022/07/14 00:24:09;;;;;;;4.32;2.28;;;;;;;;;;5092433;28;20021;-81
2022/07/14 00:26:35;;;;;;;4.93;2.17;;;;;;;;;;5085117;28;20036;-82
2022/07/14 00:29:01;;;;;;;4.32;2.20;;;;;;;;;;5064207;28;20100;-82
2022/07/14 00:31:27;;;;;;;3.78;2.08;;;;;;;;;;5077019;28;20031;-82
2022/07/14 00:33:53;;;;;;;6.03;2.20;;;;;;;;;;5078649;28;20032;-82
2022/07/14 00:36:19;;;;;;;5.65;2.25;;;;;;;;;;5078714;28;20051;-82
2022/07/14 00:38:45;;;;;;;3.70;1.65;;;;;;;;;;5068761;28;20483;-82
2022/07/14 00:41:11;;;;;;;5.07;2.20;;;;;;;;;;5077451;28;20032;-81
2022/07/14 00:43:38;;;;;;;3.70;2.10;;;;;;;;;;5078565;28;20029;-81
2022/07/14 00:46:04;;;;;;;3.72;1.98;;;;;;;;;;5078717;28;20103;-81
2022/07/14 00:48:31;;;;;;;5.07;2.28;;;;;;;;;;5076481;28;20024;-81
2022/07/14 00:50:57;;;;;;;3.90;2.00;;;;;;;;;;5076132;28;20072;-81
2022/07/14 00:53:23;;;;;;;3.95;1.98;;;;;;;;;;5078111;28;20433;-81
2022/07/14 00:55:49;;;;;;;3.92;1.83;;;;;;;;;;5076841;28;20037;-81
2022/07/14 00:58:15;;;;;;;4.45;1.95;;;;;;;;;;5077805;28;20037;-81
2022/07/14 01:00:42;;;;;;;4.00;2.05;;;;;;;;;;5076201;28;20088;-81
2022/07/14 01:03:08;;;;;;;4.07;1.95;;;;;;;;;;5082851;28;20048;-80
2022/07/14 01:05:34;;;;;;;4.20;2.03;;;;;;;;;;5090870;28;20032;-80
2022/07/14 01:08:00;;;;;;;4.97;2.13;;;;;;;;;;5096229;28;20029;-80
2022/07/14 01:10:26;;;;;;;3.95;1.92;;;;;;;;;;5094781;28;20028;-80
2022/07/14 01:12:53;;;;;;;3.60;1.90;;;;;;;;;;5076743;28;20045;-80
2022/07/14 01:15:19;;;;;;;4.55;2.08;;;;;;;;;;5083550;28;20037;-80
2022/07/14 01:17:47;;;;;;;4.60;1.85;;;;;;;;;;5077456;28;20062;-81
2022/07/14 01:20:13;;;;;;;3.63;1.80;;;;;;;;;;5070026;28;20020;-81
2022/07/14 01:22:39;;;;;;;4.35;1.73;;;;;;;;;;5064570;28;20024;-81
2022/07/14 01:25:06;;;;;;;4.22;2.17;;;;;;;;;;5058137;28;20288;-81
2022/07/14 01:27:36;;;;;;;3.97;1.92;;;;;;;;;;5057775;28;20021;-81
2022/07/14 01:30:03;;;;;;;4.07;2.20;;;;;;;;;;5065501;28;20024;-81
2022/07/14 01:32:29;;;;;;;4.07;1.95;;;;;;;;;;5074838;28;20029;-81
2022/07/14 01:34:55;;;;;;;4.28;1.90;;;;;;;;;;5078023;28;20030;-81
2022/07/14 01:37:21;;;;;;;4.38;2.08;;;;;;;;;;5077610;28;20024;-81
2022/07/14 01:39:47;;;;;;;3.70;2.03;;;;;;;;;;5076862;28;20032;-81
2022/07/14 01:42:13;;;;;;;4.20;1.80;;;;;;;;;;5070150;28;20537;-81
2022/07/14 01:44:40;;;;;;;4.57;1.80;;;;;;;;;;5077317;28;20029;-80
2022/07/14 01:47:06;;;;;;;3.70;1.85;;;;;;;;;;5075893;28;20089;-81
2022/07/14 01:49:32;;;;;;;5.07;2.45;;;;;;;;;;5074508;28;20024;-81
2022/07/14 01:51:58;;;;;;;4.03;2.03;;;;;;;;;;5076880;28;20117;-80
2022/07/14 01:54:24;;;;;;;4.43;1.73;;;;;;;;;;5069079;28;20021;-81
2022/07/14 01:56:50;;;;;;;3.80;2.10;;;;;;;;;;5060800;28;20047;-80
2022/07/14 01:59:17;;;;;;;3.90;2.05;;;;;;;;;;5074295;28;20427;-81
2022/07/14 02:01:44;;;;;;;3.92;1.90;;;;;;;;;;5076029;28;20067;-81
2022/07/14 02:04:20;;;;;;;3.72;2.00;;;;;;;;;;5075506;28;20020;-81
2022/07/14 02:06:48;;;;;;;3.33;1.90;;;;;;;;;;5064752;28;20044;-81
2022/07/14 02:09:15;;;;;;;4.43;2.40;;;;;;;;;;5056135;28;20434;-81
2022/07/14 02:14:25;;;;;;;6.68;2.20;;;;;;;;;;5067896;28;20090;-80
2022/07/14 02:16:51;;;;;;;3.35;1.73;;;;;;;;;;5076889;28;20510;-81
2022/07/14 02:19:17;;;;;;;4.93;2.15;;;;;;;;;;5076056;28;20042;-81
2022/07/14 02:21:44;;;;;;;5.47;2.00;;;;;;;;;;5077777;28;20528;-81
2022/07/14 02:24:10;;;;;;;4.75;2.20;;;;;;;;;;5076308;28;20064;-81
2022/07/14 02:26:38;;;;;;;3.35;1.77;;;;;;;;;;5075294;28;20031;-81
2022/07/14 02:29:07;;;;;;;4.57;2.03;;;;;;;;;;5075012;28;20031;-81
2022/07/14 02:31:34;;;;;;;5.45;2.10;;;;;;;;;;5062536;28;20064;-80
2022/07/14 02:34:00;;;;;;;4.80;1.98;;;;;;;;;;5056928;28;20028;-81
2022/07/14 02:36:27;;;;;;;3.40;1.73;;;;;;;;;;5067182;28;20039;-81
2022/07/14 02:38:53;;;;;;;4.85;2.03;;;;;;;;;;5077008;28;20016;-81
2022/07/14 02:41:19;;;;;;;6.70;2.58;;;;;;;;;;5081170;28;20378;-81
2022/07/14 02:43:45;;;;;;;4.25;1.98;;;;;;;;;;5078778;28;20073;-81
2022/07/14 02:46:11;;;;;;;5.80;2.72;;;;;;;;;;5080227;28;20025;-81
2022/07/14 02:48:37;;;;;;;6.32;2.30;;;;;;;;;;5079404;28;20060;-80
2022/07/14 02:51:08;;;;;;;4.00;2.00;;;;;;;;;;5074267;28;20021;-80
2022/07/14 02:53:34;;;;;;;3.80;2.03;;;;;;;;;;5074971;28;20534;-82
2022/07/14 02:56:01;;;;;;;4.82;2.25;;;;;;;;;;5078746;28;20033;-83
2022/07/14 02:58:27;;;;;;;4.35;1.90;;;;;;;;;;5078396;28;20037;-82
2022/07/14 03:00:53;;;;;;;3.67;1.70;;;;;;;;;;5080627;28;20036;-81
2022/07/14 03:03:20;;;;;;;4.70;2.10;;;;;;;;;;5070509;28;20033;-83
2022/07/14 03:05:46;;;;;;;4.40;2.00;;;;;;;;;;5060349;28;20033;-82
2022/07/14 03:08:12;;;;;;;4.88;2.50;;;;;;;;;;5061162;28;20029;-83
2022/07/14 03:10:38;;;;;;;3.72;2.15;;;;;;;;;;5080140;28;20083;-82
2022/07/14 03:13:05;;;;;;;4.20;2.20;;;;;;;;;;5079053;28;20091;-83
2022/07/14 03:15:32;;;;;;;4.10;2.10;;;;;;;;;;5077198;28;20023;-82
2022/07/14 03:17:58;;;;;;;4.35;2.22;;;;;;;;;;5080005;28;20024;-83
2022/07/14 03:20:24;;;;;;;5.68;2.70;;;;;;;;;;5080191;28;20425;-80
2022/07/14 03:22:51;;;;;;;4.40;2.35;;;;;;;;;;5070818;28;20356;-79
2022/07/14 03:25:17;;;;;;;5.13;2.38;;;;;;;;;;5064380;28;20033;-80
2022/07/14 03:27:46;;;;;;;4.65;2.65;;;;;;;;;;5070292;28;20027;-79
2022/07/14 03:30:12;;;;;;;4.38;2.30;;;;;;;;;;5078123;28;20052;-80
2022/07/14 03:32:39;;;;;;;4.65;2.35;;;;;;;;;;5067676;28;20088;-80
2022/07/14 03:35:07;;;;;;;6.05;2.80;;;;;;;;;;5060589;28;20025;-80
2022/07/14 03:37:33;;;;;;;4.65;2.10;;;;;;;;;;5066268;28;20074;-80
2022/07/14 03:39:59;;;;;;;5.25;2.35;;;;;;;;;;5078251;28;20031;-80
2022/07/14 03:42:25;;;;;;;5.20;2.35;;;;;;;;;;5065265;28;20025;-80
2022/07/14 03:44:51;;;;;;;4.80;2.50;;;;;;;;;;5068714;28;20064;-80
2022/07/14 03:47:18;;;;;;;5.05;2.55;;;;;;;;;;5073066;28;20139;-80
2022/07/14 03:49:44;;;;;;;5.32;2.60;;;;;;;;;;5069068;28;20074;-81
2022/07/14 03:52:10;;;;;;;5.45;2.40;;;;;;;;;;5074034;28;20160;-82
2022/07/14 03:54:36;;;;;;;4.88;2.65;;;;;;;;;;5078742;28;20024;-81
2022/07/14 03:57:03;;;;;;;5.57;2.60;;;;;;;;;;5076101;28;20476;-82
2022/07/14 03:59:29;;;;;;;4.93;2.75;;;;;;;;;;5073823;28;20017;-82
2022/07/14 04:01:55;;;;;;;7.00;2.70;;;;;;;;;;5071927;28;20154;-82
2022/07/14 04:04:21;;;;;;;6.40;3.00;;;;;;;;;;5078766;28;20024;-82
2022/07/14 04:06:47;;;;;;;7.05;2.97;;;;;;;;;;5072479;28;20048;-81
2022/07/14 04:09:13;;;;;;;6.95;2.70;;;;;;;;;;5069168;28;20029;-82
2022/07/14 04:11:39;;;;;;;6.43;3.08;;;;;;;;;;5063757;28;20028;-81
2022/07/14 04:14:05;;;;;;;5.00;2.70;;;;;;;;;;5067864;28;20047;-80
2022/07/14 04:16:31;;;;;;;7.57;2.38;;;;;;;;;;5072426;28;20029;-81
2022/07/14 04:18:57;;;;;;;6.05;2.88;;;;;;;;;;5078287;28;20031;-82
2022/07/14 04:21:23;;;;;;;7.28;3.55;;;;;;;;;;5078483;28;20025;-81
2022/07/14 04:23:49;;;;;;;5.38;2.28;;;;;;;;;;5076818;28;20029;-81
2022/07/14 04:26:15;;;;;;;7.13;3.42;;;;;;;;;;5078220;28;20024;-81
2022/07/14 04:28:41;;;;;;;6.15;3.15;;;;;;;;;;5078307;28;20089;-82
2022/07/14 04:31:08;;;;;;;5.93;2.60;;;;;;;;;;5076249;28;20044;-81
2022/07/14 04:33:34;;;;;;;6.20;3.13;;;;;;;;;;5067331;28;20043;-81
2022/07/14 04:36:00;;;;;;;7.10;3.38;;;;;;;;;;5077265;28;20020;-82
2022/07/14 04:38:26;;;;;;;7.43;3.13;;;;;;;;;;5068889;28;20098;-81
2022/07/14 04:40:53;;;;;;;5.03;2.67;;;;;;;;;;5057806;28;20033;-80
2022/07/14 04:43:20;;;;;;;8.77;3.22;;;;;;;;;;5069327;28;20036;-81
2022/07/14 04:45:46;;;;;;;6.85;3.25;;;;;;;;;;5068350;28;20028;-81
2022/07/14 04:48:12;;;;;;;5.72;2.88;;;;;;;;;;5077212;28;20056;-81
2022/07/14 04:53:23;;;;;;;6.38;2.72;;;;;;;;;;5076650;28;20051;-82
2022/07/14 04:55:49;;;;;;;6.35;2.80;;;;;;;;;;5077553;28;20036;-80
2022/07/14 04:58:16;;;;;;;10.70;3.33;;;;;;;;;;5060450;28;20069;-81
2022/07/14 05:00:42;;;;;;;6.38;3.92;;;;;;;;;;5077742;28;20082;-82
2022/07/14 05:03:08;;;;;;;7.07;3.20;;;;;;;;;;5059975;28;20466;-82
2022/07/14 05:05:34;;;;;;;8.65;3.08;;;;;;;;;;5070786;28;20063;-83
2022/07/14 05:08:00;;;;;;;11.52;4.57;;;;;;;;;;5077666;28;20029;-82
2022/07/14 05:10:26;;;;;;;10.65;3.45;;;;;;;;;;5058712;28;20102;-82
2022/07/14 05:12:52;;;;;;;8.05;3.10;;;;;;;;;;5070002;28;20028;-82
2022/07/14 05:15:18;;;;;;;15.15;4.75;;;;;;;;;;5071577;28;20039;-82
2022/07/14 05:17:44;;;;;;;9.20;3.60;;;;;;;;;;5062946;28;20067;-82
2022/07/14 05:20:11;;;;;;;8.40;3.20;;;;;;;;;;5074253;28;20025;-80
2022/07/14 05:22:38;;;;;;;7.07;3.60;;;;;;;;;;5057725;28;20021;-80
2022/07/14 05:25:07;;;;;;;10.15;4.20;;;;;;;;;;5056952;28;20029;-81
2022/07/14 05:27:33;;;;;;;5.70;2.95;;;;;;;;;;5072776;28;20032;-81
2022/07/14 05:29:59;;;;;;;9.15;3.33;;;;;;;;;;5075981;28;20032;-81
2022/07/14 05:32:25;;;;;;;7.70;3.00;;;;;;;;;;5066261;28;20047;-79
2022/07/14 05:34:52;;;;;;;7.55;3.05;;;;;;;;;;5063559;28;20031;-81
2022/07/14 05:37:18;;;;;;;5.82;2.70;;;;;;;;;;5064639;28;20028;-81
2022/07/14 05:39:44;;;;;;;6.45;3.10;;;;;;;;;;5071636;28;20099;-82
2022/07/14 05:42:11;;;;;;;7.63;3.53;;;;;;;;;;5065331;28;20028;-81
2022/07/14 05:44:38;;;;;;;6.65;2.92;;;;;;;;;;5067693;28;20017;-81
2022/07/14 05:47:04;;;;;;;8.13;2.60;;;;;;;;;;5072349;28;20095;-82
2022/07/14 05:49:30;;;;;;;7.13;2.97;;;;;;;;;;5074421;28;20479;-81
2022/07/14 05:51:56;;;;;;;6.80;3.17;;;;;;;;;;5072302;28;20039;-81
2022/07/14 05:54:22;;;;;;;4.95;2.67;;;;;;;;;;5077834;28;20084;-81
2022/07/14 05:56:48;;;;;;;6.50;2.72;;;;;;;;;;5078185;28;20068;-81
2022/07/14 05:59:14;;;;;;;5.85;2.95;;;;;;;;;;5077230;28;20021;-81
2022/07/14 06:01:40;;;;;;;8.05;2.97;;;;;;;;;;5076291;28;20054;-81
2022/07/14 06:04:06;;;;;;;6.35;3.38;;;;;;;;;;5067584;28;20033;-82
2022/07/14 06:06:32;;;;;;;7.28;2.83;;;;;;;;;;5074312;28;20116;-81
2022/07/14 06:08:58;;;;;;;4.47;2.50;;;;;;;;;;5075753;28;20082;-82
2022/07/14 06:11:25;;;;;;;8.40;3.03;;;;;;;;;;5062182;28;20029;-81
2022/07/14 06:13:51;;;;;;;4.28;2.50;;;;;;;;;;5065113;28;20083;-82
2022/07/14 06:16:17;;;;;;;8.02;4.07;;;;;;;;;;5078803;28;20031;-83
2022/07/14 06:18:43;;;;;;;6.63;2.80;;;;;;;;;;5080308;28;20017;-84
2022/07/14 06:21:09;;;;;;;6.30;2.72;;;;;;;;;;5081276;28;20099;-84
2022/07/14 06:23:36;;;;;;;7.35;2.80;;;;;;;;;;5076821;28;20246;-83
2022/07/14 06:26:11;;;;;;;6.85;2.80;;;;;;;;;;5076712;28;20058;-83
2022/07/14 06:28:37;;;;;;;6.18;2.53;;;;;;;;;;5062761;28;20028;-82
2022/07/14 06:31:03;;;;;;;6.40;2.65;;;;;;;;;;5078473;28;20062;-82
2022/07/14 06:33:30;;;;;;;7.30;2.70;;;;;;;;;;5079271;28;20032;-83
2022/07/14 06:35:56;;;;;;;8.52;3.17;;;;;;;;;;5076347;28;20039;-82
2022/07/14 06:38:22;;;;;;;4.38;2.42;;;;;;;;;;5076859;28;20471;-82
2022/07/14 06:40:48;;;;;;;5.75;2.40;;;;;;;;;;5079731;28;20154;-84
2022/07/14 06:43:14;;;;;;;4.60;2.42;;;;;;;;;;5078349;28;20021;-80
2022/07/14 06:45:40;;;;;;;5.82;2.85;;;;;;;;;;5071095;28;20022;-81
2022/07/14 06:48:06;;;;;;;6.22;2.67;;;;;;;;;;5067018;28;20384;-82
2022/07/14 06:50:32;;;;;;;8.25;3.35;;;;;;;;;;5073169;28;20043;-81
2022/07/14 06:52:58;;;;;;;6.57;2.95;;;;;;;;;;5069092;28;20036;-80
2022/07/14 06:55:24;;;;;;;4.10;2.25;;;;;;;;;;5069249;28;20029;-80
2022/07/14 06:57:51;;;;;;;5.50;2.60;;;;;;;;;;5075232;28;20055;-79
2022/07/14 07:00:18;;;;;;;5.43;2.50;;;;;;;;;;5072060;28;20051;-82
2022/07/14 07:02:44;;;;;;;4.72;2.63;;;;;;;;;;5080741;28;20032;-83
2022/07/14 07:08:00;;;;;;;6.70;2.70;;;;;;;;;;5080956;28;20043;-84
2022/07/14 07:10:26;;;;;;;5.00;2.60;;;;;;;;;;5078828;28;20032;-83
2022/07/14 07:12:52;;;;;;;5.13;2.58;;;;;;;;;;5077974;28;20132;-80
2022/07/14 07:15:18;;;;;;;5.35;2.50;;;;;;;;;;5071816;28;20025;-82
2022/07/14 07:17:44;;;;;;;4.47;2.30;;;;;;;;;;5080440;28;20452;-83
2022/07/14 07:20:10;;;;;;;6.63;3.28;;;;;;;;;;5079218;28;20021;-83
2022/07/14 07:22:37;;;;;;;4.22;2.00;;;;;;;;;;5076734;28;20028;-83
2022/07/14 07:25:04;;;;;;;4.82;2.00;;;;;;;;;;5075747;28;20024;-83
2022/07/14 07:27:30;;;;;;;5.50;1.95;;;;;;;;;;5078371;28;20044;-83
2022/07/14 07:29:56;;;;;;;4.25;2.00;;;;;;;;;;5079273;28;20028;-83
2022/07/14 07:32:22;;;;;;;4.78;1.90;;;;;;;;;;5077082;28;20521;-83
2022/07/14 07:34:48;;;;;;;4.30;1.75;;;;;;;;;;5076651;28;20024;-83
2022/07/14 07:37:15;;;;;;;5.88;2.30;;;;;;;;;;5079977;28;20062;-83
2022/07/14 07:39:41;;;;;;;5.30;2.25;;;;;;;;;;5077137;28;20559;-83
2022/07/14 07:42:07;;;;;;;4.00;1.80;;;;;;;;;;5078168;28;20510;-83
2022/07/14 07:44:36;;;;;;;5.03;2.13;;;;;;;;;;5076810;28;20035;-83
2022/07/14 07:47:02;;;;;;;4.80;1.90;;;;;;;;;;5063948;28;20037;-83
2022/07/14 07:49:28;;;;;;;4.88;2.20;;;;;;;;;;5060174;28;20029;-83
2022/07/14 07:52:00;;;;;;;4.88;1.90;;;;;;;;;;5068537;28;20028;-84
2022/07/14 07:54:27;;;;;;;4.75;2.10;;;;;;;;;;5078047;28;20401;-83
2022/07/14 07:56:54;;;;;;;5.18;1.98;;;;;;;;;;5076238;28;20045;-81
2022/07/14 07:59:20;;;;;;;6.20;2.15;;;;;;;;;;5076757;28;20832;-83
2022/07/14 08:01:46;;;;;;;5.20;1.95;;;;;;;;;;5073450;28;20021;-84
2022/07/14 08:04:14;;;;;;;4.57;1.98;;;;;;;;;;5076502;28;20021;-83
2022/07/14 08:06:40;;;;;;;6.35;2.33;;;;;;;;;;5092315;28;20068;-82
2022/07/14 08:09:10;;;;;;;5.10;2.13;;;;;;;;;;5074383;28;20024;-82
2022/07/14 08:11:37;;;;;;;3.97;2.03;;;;;;;;;;5063159;28;20095;-79
2022/07/14 08:14:03;;;;;;;5.65;2.22;;;;;;;;;;5071129;28;20037;-82
2022/07/14 08:16:29;;;;;;;4.28;1.73;;;;;;;;;;5058049;28;20025;-82
2022/07/14 08:18:55;;;;;;;5.40;2.10;;;;;;;;;;5060714;28;20449;-81
2022/07/14 08:21:21;;;;;;;4.10;2.00;;;;;;;;;;5072341;28;20024;-81
2022/07/14 08:23:47;;;;;;;7.55;2.40;;;;;;;;;;5070056;28;20104;-79
2022/07/14 08:26:13;;;;;;;5.07;2.10;;;;;;;;;;5075002;28;20025;-81
2022/07/14 08:28:39;;;;;;;4.75;2.00;;;;;;;;;;5067666;28;20047;-82
2022/07/14 08:31:05;;;;;;;4.85;2.10;;;;;;;;;;5076295;28;20020;-82
2022/07/14 08:33:31;;;;;;;5.55;1.90;;;;;;;;;;5076882;28;20021;-82
2022/07/14 08:35:57;;;;;;;3.83;1.90;;;;;;;;;;5070530;28;20040;-82
2022/07/14 08:38:23;;;;;;;5.97;1.75;;;;;;;;;;5062464;28;20025;-81
2022/07/14 08:40:49;;;;;;;6.15;2.10;;;;;;;;;;5076867;28;20050;-80
2022/07/14 08:43:16;;;;;;;5.15;1.90;;;;;;;;;;5076453;28;20029;-82
2022/07/14 08:45:43;;;;;;;3.95;2.03;;;;;;;;;;5072635;28;20052;-82
2022/07/14 08:48:09;;;;;;;5.03;1.80;;;;;;;;;;5074525;28;20029;-83
2022/07/14 08:50:35;;;;;;;4.53;2.00;;;;;;;;;;5070898;28;20078;-82
2022/07/14 08:53:07;;;;;;;3.92;1.48;;;;;;;;;;5060732;28;20037;-82
2022/07/14 08:55:33;;;;;;;3.85;1.77;;;;;;;;;;5066422;28;20067;-83
2022/07/14 08:57:59;;;;;;;5.13;2.00;;;;;;;;;;5067653;28;20028;-82
2022/07/14 09:00:25;;;;;;;3.58;1.65;;;;;;;;;;5075981;28;20030;-83
2022/07/14 09:02:53;;;;;;;4.20;1.90;;;;;;;;;;5072327;28;20069;-81
2022/07/14 09:05:19;;;;;;;5.18;1.70;;;;;;;;;;5067271;28;20028;-83
2022/07/14 09:07:45;;;;;;;3.83;2.13;;;;;;;;;;5071657;28;20060;-83
2022/07/14 09:10:12;;;;;;;4.90;1.70;;;;;;;;;;5083398;28;20020;-80
2022/07/14 09:12:39;;;;;;;3.67;1.70;;;;;;;;;;5075583;28;20548;-82
2022/07/14 09:18:18;;;;;;;3.15;1.50;;;;;;;;;;5038706;28;20053;-82
2022/07/14 09:20:44;;;;;;;2.97;1.20;;;;;;;;;;5044673;28;20059;-82
2022/07/14 09:23:10;;;;;;;2.72;1.13;;;;;;;;;;5039059;28;20057;-82
2022/07/14 09:25:39;;;;;;;3.33;1.38;;;;;;;;;;5049632;28;20033;-83
2022/07/14 09:28:08;;;;;;;3.65;1.30;;;;;;;;;;5053476;28;20107;-81
2022/07/14 09:30:34;;;;;;;3.30;1.30;;;;;;;;;;5043556;28;20041;-83
2022/07/14 09:33:01;;;;;;;3.38;1.27;;;;;;;;;;5043433;28;20143;-82
2022/07/14 09:35:34;;;;;;;3.17;1.20;;;;;;;;;;5048977;28;20033;-81
2022/07/14 09:38:00;;;;;;;2.67;1.17;;;;;;;;;;5065987;28;20092;-80
2022/07/14 09:40:28;;;;;;;2.88;1.30;;;;;;;;;;5052870;28;20040;-81
2022/07/14 09:43:04;;;;;;;3.08;1.30;;;;;;;;;;5050113;28;20033;-81
2022/07/14 09:45:32;;;;;;;3.13;1.25;;;;;;;;;;5041014;28;20081;-80
2022/07/14 09:47:59;;;;;;;2.72;1.05;;;;;;;;;;5037410;28;20044;-80
2022/07/14 09:50:54;;;;;;;3.97;1.25;;;;;;;;;;5074046;28;20479;-80
2022/07/14 09:53:31;;;;;;;3.40;1.08;;;;;;;;;;5066122;28;20044;-80
2022/07/14 09:56:00;;;;;;;2.83;1.50;;;;;;;;;;5073813;28;20047;-83
2022/07/14 09:58:48;;;;;;;3.35;1.17;;;;;;;;;;5072820;28;20044;-81
2022/07/14 10:01:18;;;;;;;2.80;1.15;;;;;;;;;;5074609;28;20036;-80
2022/07/14 10:03:45;;;;;;;3.83;1.38;;;;;;;;;;5076640;28;20395;-82
2022/07/14 10:06:12;;;;;;;3.15;1.25;;;;;;;;;;5076391;28;20504;-83
2022/07/14 10:08:43;;;;;;;3.25;1.30;;;;;;;;;;5075712;28;20024;-81
2022/07/14 10:11:10;;;;;;;3.63;1.30;;;;;;;;;;5077346;28;20028;-82
2022/07/14 10:13:37;;;;;;;2.88;1.20;;;;;;;;;;5074124;28;20107;-80
2022/07/14 10:16:03;;;;;;;2.47;1.05;;;;;;;;;;5075562;28;20053;-80
2022/07/14 10:18:29;;;;;;;4.30;1.15;;;;;;;;;;5075776;28;20062;-80
2022/07/14 10:20:58;;;;;;;3.83;1.20;;;;;;;;;;5077179;28;20021;-81
2022/07/14 10:23:24;;;;;;;3.33;1.20;;;;;;;;;;5076212;28;20036;-82
2022/07/14 10:25:52;;;;;;;2.50;1.10;;;;;;;;;;5077173;28;20036;-81
2022/07/14 10:28:18;;;;;;;2.45;1.20;;;;;;;;;;5070962;28;20024;-81
2022/07/14 10:30:50;;;;;;;3.08;1.40;;;;;;;;;;5076421;28;20070;-80
2022/07/14 10:33:16;;;;;;;;;;;;;;;;;;5076101;28;20029;-80
2022/07/14 10:35:50;;;;;;;3.60;1.30;;;;;;;;;;5074089;28;19975;-81
2022/07/14 10:38:31;;;;;;;3.65;1.13;;;;;;;;;;5075119;28;20537;-80
2022/07/14 10:40:57;;;;;;;2.22;0.93;;;;;;;;;;5077201;28;20020;-82
2022/07/14 10:43:25;;;;;;;2.67;1.08;;;;;;;;;;5075380;28;20047;-82
2022/07/14 10:45:52;;;;;;;2.42;1.05;;;;;;;;;;5076774;28;20104;-80
2022/07/14 10:48:28;;;;;;;2.13;1.02;;;;;;;;;;5076258;28;20111;-78
2022/07/14 10:51:13;;;;;;;4.32;1.20;;;;;;;;;;5074181;28;20136;-80
2022/07/14 10:53:57;;;;;;;2.80;1.02;;;;;;;;;;5076772;28;20475;-80
2022/07/14 10:56:25;;;;;;;3.10;1.08;;;;;;;;;;5059330;28;20058;-80
2022/07/14 10:59:11;;;;;;;2.80;1.13;;;;;;;;;;5075348;28;20026;-80
2022/07/14 11:01:37;;;;;;;3.28;1.27;;;;;;;;;;5072150;28;20029;-81
2022/07/14 11:04:03;;;;;;;3.15;1.25;;;;;;;;;;5073497;28;20029;-83
2022/07/14 11:06:29;;;;;;;3.38;1.45;;;;;;;;;;5064276;28;20012;-82
2022/07/14 11:09:14;;;;;;;2.83;1.17;;;;;;;;;;5080230;28;20021;-84
2022/07/14 11:12:00;;;;;;;3.03;1.27;;;;;;;;;;5078838;28;20017;-81
2022/07/14 11:14:26;;;;;;;2.83;1.30;;;;;;;;;;5072641;28;20044;-82
2022/07/14 11:16:52;;;;;;;1.77;0.95;;;;;;;;;;5078053;28;20055;-82
2022/07/14 11:19:23;;;;;;;2.78;1.20;;;;;;;;;;5095322;28;20025;-80
2022/07/14 11:22:08;;;;;;;2.08;1.10;;;;;;;;;;5076454;28;20025;-79
2022/07/14 11:24:34;;;;;;;2.53;1.20;;;;;;;;;;5071453;28;20024;-81
2022/07/14 11:27:20;;;;;;;2.83;1.30;;;;;;;;;;5072341;28;20029;-80
2022/07/14 11:29:46;;;;;;;2.60;1.20;;;;;;;;;;5079456;28;20081;-82
2022/07/14 11:32:30;;;;;;;2.95;1.30;;;;;;;;;;5078305;28;20032;-83
2022/07/14 11:37:58;;;;;;;2.42;1.20;;;;;;;;;;5065867;28;20043;-83
2022/07/14 11:40:44;;;;;;;3.55;1.27;;;;;;;;;;5072439;28;20474;-82
2022/07/14 11:43:36;;;;;;;2.72;1.30;;;;;;;;;;5078266;28;20474;-80
2022/07/14 11:46:07;;;;;;;4.13;1.90;;;;;;;;;;5083022;28;20487;-82
2022/07/14 11:48:35;;;;;;;3.30;1.70;;;;;;;;;;5076343;28;20079;-82
2022/07/14 11:51:06;;;;;;;3.13;1.52;;;;;;;;;;5077060;28;20021;-81
2022/07/14 11:53:32;;;;;;;2.55;1.17;;;;;;;;;;5078278;28;20020;-83
2022/07/14 11:55:59;;;;;;;3.15;1.42;;;;;;;;;;5079629;28;20524;-82
2022/07/14 11:58:25;;;;;;;4.18;1.65;;;;;;;;;;5071790;28;20029;-82
2022/07/14 12:00:58;;;;;;;5.10;1.60;;;;;;;;;;5065891;28;20029;-81
2022/07/14 12:03:25;;;;;;;3.42;1.70;;;;;;;;;;5075392;28;20103;-83
2022/07/14 12:05:55;;;;;;;3.30;1.45;;;;;;;;;;5068617;28;20078;-82
2022/07/14 12:08:22;;;;;;;3.70;1.73;;;;;;;;;;5073514;28;21127;-81
2022/07/14 12:10:49;;;;;;;3.53;2.08;;;;;;;;;;5075805;28;20040;-82
2022/07/14 12:13:16;;;;;;;4.22;1.80;;;;;;;;;;5079716;28;20371;-82
2022/07/14 12:15:42;;;;;;;2.95;1.30;;;;;;;;;;5080476;28;20163;-81
2022/07/14 12:18:09;;;;;;;2.95;1.50;;;;;;;;;;5067746;28;20067;-82
2022/07/14 12:20:39;;;;;;;4.38;1.92;;;;;;;;;;5078828;28;20383;-81
2022/07/14 12:23:06;;;;;;;5.15;1.58;;;;;;;;;;5069207;28;20023;-83
2022/07/14 12:25:34;;;;;;;2.85;1.58;;;;;;;;;;5059228;28;20078;-82
2022/07/14 12:28:01;;;;;;;3.00;1.58;;;;;;;;;;5063298;28;20028;-83
2022/07/14 12:30:48;;;;;;;3.53;1.48;;;;;;;;;;5077828;28;20401;-81
2022/07/14 12:33:20;;;;;;;3.13;1.52;;;;;;;;;;5063325;28;20041;-83
2022/07/14 12:35:47;;;;;;;3.88;2.00;;;;;;;;;;5073066;28;20104;-82
2022/07/14 12:38:13;;;;;;;3.22;1.70;;;;;;;;;;5077103;28;20028;-82
2022/07/14 12:40:40;;;;;;;3.40;1.67;;;;;;;;;;5069020;28;20027;-81
2022/07/14 12:43:08;;;;;;;2.90;1.42;;;;;;;;;;5058718;28;20032;-82
2022/07/14 12:45:54;;;;;;;3.45;1.88;;;;;;;;;;5067111;28;20054;-83
2022/07/14 12:48:20;;;;;;;3.20;1.58;;;;;;;;;;5070258;28;20036;-82
2022/07/14 12:50:46;;;;;;;3.40;1.70;;;;;;;;;;5067056;28;20032;-81
2022/07/14 12:53:13;;;;;;;4.68;1.70;;;;;;;;;;5055528;28;20040;-79
2022/07/14 12:55:49;;;;;;;3.63;1.60;;;;;;;;;;5062672;28;20025;-81
2022/07/14 12:58:16;;;;;;;3.30;1.52;;;;;;;;;;5073143;28;20051;-82
2022/07/14 13:00:45;;;;;;;3.33;1.77;;;;;;;;;;5067472;28;20021;-83
2022/07/14 13:03:13;;;;;;;3.55;1.73;;;;;;;;;;5052710;28;20094;-82
2022/07/14 13:05:53;;;;;;;3.55;1.60;;;;;;;;;;5062797;28;20013;-80
2022/07/14 13:08:48;;;;;;;4.10;1.88;;;;;;;;;;5074696;28;20032;-81
2022/07/14 13:11:15;;;;;;;2.80;1.40;;;;;;;;;;5051711;28;20041;-80
2022/07/14 13:13:46;;;;;;;3.60;1.70;;;;;;;;;;5055312;28;20798;-81
2022/07/14 13:16:30;;;;;;;2.95;1.60;;;;;;;;;;5066845;28;20043;-81
2022/07/14 13:19:17;;;;;;;3.10;1.38;;;;;;;;;;5061143;28;20048;-81
2022/07/14 13:21:57;;;;;;;3.33;1.67;;;;;;;;;;5071731;28;20032;-82
2022/07/14 13:24:25;;;;;;;3.88;1.88;;;;;;;;;;5067215;28;20045;-82
2022/07/14 13:27:17;;;;;;;3.38;1.70;;;;;;;;;;5072561;28;20025;-80
2022/07/14 13:29:53;;;;;;;3.45;2.00;;;;;;;;;;5071731;28;20552;-80
2022/07/14 13:32:19;;;;;;;3.97;1.80;;;;;;;;;;5070076;28;20032;-80
2022/07/14 13:34:45;;;;;;;3.75;1.70;;;;;;;;;;5064898;28;20074;-80
2022/07/14 13:37:17;;;;;;;3.40;1.60;;;;;;;;;;5057144;28;20057;-81
2022/07/14 13:39:43;;;;;;;5.07;2.05;;;;;;;;;;5072025;28;20127;-81
2022/07/14 13:42:10;;;;;;;3.60;1.90;;;;;;;;;;5075519;28;20502;-80
2022/07/14 13:44:36;;;;;;;2.95;1.60;;;;;;;;;;5067850;28;20029;-80
2022/07/14 13:47:02;;;;;;;3.63;1.60;;;;;;;;;;5066970;28;20031;-80
2022/07/14 13:52:07;;;;;;;4.53;2.00;;;;;;;;;;5064111;28;20024;-81
2022/07/14 13:52:14;;;;;;;3.42;1.80;;;;;;;;;;5074567;28;20399;-80
2022/07/14 13:54:41;;;;;;;3.22;1.60;;;;;;;;;;5073988;28;20471;-80
2022/07/14 13:57:07;;;;;;;3.72;1.85;;;;;;;;;;5073165;28;20542;-80
2022/07/14 13:59:33;;;;;;;3.63;1.92;;;;;;;;;;5063328;28;20051;-80
2022/07/14 14:01:59;;;;;;;3.85;1.73;;;;;;;;;;5072418;28;20029;-82
2022/07/14 14:04:25;;;;;;;3.42;1.70;;;;;;;;;;5069175;28;20025;-82
2022/07/14 14:06:51;;;;;;;3.20;1.70;;;;;;;;;;5063060;28;20025;-80
2022/07/14 14:09:18;;;;;;;5.40;1.88;;;;;;;;;;5073103;28;20548;-80
2022/07/14 14:11:45;;;;;;;3.60;1.98;;;;;;;;;;5059283;28;20025;-80
2022/07/14 14:14:11;;;;;;;5.18;1.95;;;;;;;;;;5060790;28;20025;-81
2022/07/14 14:16:37;;;;;;;3.20;1.45;;;;;;;;;;5066142;28;20033;-81
2022/07/14 14:19:04;;;;;;;4.15;2.00;;;;;;;;;;5070354;28;20028;-80
2022/07/14 14:21:31;;;;;;;3.60;1.70;;;;;;;;;;5064037;28;20033;-81
2022/07/14 14:23:57;;;;;;;5.00;2.35;;;;;;;;;;5053551;28;20040;-80
2022/07/14 14:26:23;;;;;;;3.47;1.73;;;;;;;;;;5052284;28;20020;-80
2022/07/14 14:28:50;;;;;;;3.58;1.58;;;;;;;;;;5069972;28;20024;-81
2022/07/14 14:31:16;;;;;;;4.47;1.70;;;;;;;;;;5072907;28;20029;-80
2022/07/14 14:33:42;;;;;;;3.85;1.80;;;;;;;;;;5075270;28;20501;-80
2022/07/14 14:36:08;;;;;;;3.35;1.70;;;;;;;;;;5077928;28;20074;-80
2022/07/14 14:38:36;;;;;;;4.43;1.58;;;;;;;;;;5071494;28;20112;-80
2022/07/14 14:41:02;;;;;;;4.15;1.90;;;;;;;;;;5057612;28;20047;-80
2022/07/14 14:43:28;;;;;;;4.18;1.80;;;;;;;;;;5057603;28;20112;-79
2022/07/14 14:45:55;;;;;;;3.47;1.73;;;;;;;;;;5073032;28;20060;-80
2022/07/14 14:48:21;;;;;;;3.53;1.80;;;;;;;;;;5077300;28;20442;-82
2022/07/14 14:50:47;;;;;;;3.78;1.75;;;;;;;;;;5077005;28;20036;-81
2022/07/14 14:53:13;;;;;;;4.55;1.92;;;;;;;;;;5078230;28;20033;-81
2022/07/14 14:55:39;;;;;;;3.65;1.73;;;;;;;;;;5076565;28;20563;-80
2022/07/14 14:58:05;;;;;;;3.53;1.70;;;;;;;;;;5075357;28;20037;-81
2022/07/14 15:00:32;;;;;;;3.95;1.45;;;;;;;;;;5075129;28;20021;-79
2022/07/14 15:02:58;;;;;;;2.75;1.23;;;;;;;;;;5076462;28;20024;-81